sensor_id;sensor_type;location;lat;lon;timestamp;noise_LAeq;noise_LA_min;noise_LA_max;noise_LA01;noise_LA95
67322;Laerm;57666;51.436;5.978;2023-07-29T00:00:01;48.79;47.77;49.94;;
67322;Laerm;57666;51.436;5.978;2023-07-29T00:00:13;48.76;47.73;49.95;;
67322;Laerm;57666;51.436;5.978;2023-07-29T00:00:24;48.63;47.54;49.71;;
67322;Laerm;57666;51.436;5.978;2023-07-29T00:00:38;48.63;47.59;50.03;;
67322;Laerm;57666;51.436;5.978;2023-07-29T00:00:49;48.63;47.74;52.58;;
67322;Laerm;57666;51.436;5.978;2023-07-29T00:01:03;48.66;47.35;49.81;;
67322;Laerm;57666;51.436;5.978;2023-07-29T00:01:14;48.66;47.69;49.77;;
67322;Laerm;57666;51.436;5.978;2023-07-29T00:01:26;48.67;47.53;49.77;;
67322;Laerm;57666;51.436;5.978;2023-07-29T00:01:40;48.64;47.64;49.58;;
67322;Laerm;57666;51.436;5.978;2023-07-29T00:01:51;48.64;47.70;49.65;;
67322;Laerm;57666;51.436;5.978;2023-07-29T00:02:02;48.64;47.72;49.79;;
67322;Laerm;57666;51.436;5.978;2023-07-29T00:02:18;48.67;47.62;49.63;;
67322;Laerm;57666;51.436;5.978;2023-07-29T00:02:31;48.66;47.57;50.04;;
67322;Laerm;57666;51.436;5.978;2023-07-29T00:02:42;48.73;47.88;49.78;;
67322;Laerm;57666;51.436;5.978;2023-07-29T00:02:55;48.71;47.69;49.54;;
67322;Laerm;57666;51.436;5.978;2023-07-29T00:03:06;48.66;47.63;49.84;;
67322;Laerm;57666;51.436;5.978;2023-07-29T00:03:17;48.71;47.71;50.12;;
67322;Laerm;57666;51.436;5.978;2023-07-29T00:03:27;48.73;47.68;49.66;;
67322;Laerm;57666;51.436;5.978;2023-07-29T00:03:42;48.75;47.33;50.00;;
67322;Laerm;57666;51.436;5.978;2023-07-29T00:03:52;48.73;47.65;49.98;;
67322;Laerm;57666;51.436;5.978;2023-07-29T00:04:03;48.76;47.83;52.80;;
67322;Laerm;57666;51.436;5.978;2023-07-29T00:04:18;48.69;47.54;49.70;;
67322;Laerm;57666;51.436;5.978;2023-07-29T00:04:32;48.69;47.73;49.71;;
67322;Laerm;57666;51.436;5.978;2023-07-29T00:04:42;48.69;47.68;49.85;;
67322;Laerm;57666;51.436;5.978;2023-07-29T00:04:58;48.70;47.75;49.84;;
67322;Laerm;57666;51.436;5.978;2023-07-29T00:05:09;48.65;47.47;49.88;;
67322;Laerm;57666;51.436;5.978;2023-07-29T00:05:19;48.67;47.63;49.91;;
67322;Laerm;57666;51.436;5.978;2023-07-29T00:05:32;48.75;47.91;52.05;;
67322;Laerm;57666;51.436;5.978;2023-07-29T00:05:43;48.70;47.83;49.75;;
67322;Laerm;57666;51.436;5.978;2023-07-29T00:05:54;48.69;47.36;49.61;;
67322;Laerm;57666;51.436;5.978;2023-07-29T00:06:07;48.72;47.77;49.61;;
67322;Laerm;57666;51.436;5.978;2023-07-29T00:06:21;48.68;47.75;49.60;;
67322;Laerm;57666;51.436;5.978;2023-07-29T00:06:32;48.71;47.79;50.07;;
67322;Laerm;57666;51.436;5.978;2023-07-29T00:06:42;48.70;47.72;49.58;;
67322;Laerm;57666;51.436;5.978;2023-07-29T00:06:53;48.74;47.43;49.85;;
67322;Laerm;57666;51.436;5.978;2023-07-29T00:07:06;48.74;47.55;52.42;;
67322;Laerm;57666;51.436;5.978;2023-07-29T00:07:19;48.74;47.77;49.94;;
67322;Laerm;57666;51.436;5.978;2023-07-29T00:07:33;48.71;47.54;49.73;;
67322;Laerm;57666;51.436;5.978;2023-07-29T00:07:43;48.67;47.56;49.50;;
67322;Laerm;57666;51.436;5.978;2023-07-29T00:07:54;48.69;47.61;49.60;;
67322;Laerm;57666;51.436;5.978;2023-07-29T00:08:08;48.84;47.74;49.86;;
67322;Laerm;57666;51.436;5.978;2023-07-29T00:08:22;48.96;47.93;52.11;;
67322;Laerm;57666;51.436;5.978;2023-07-29T00:08:36;48.86;47.82;50.26;;
67322;Laerm;57666;51.436;5.978;2023-07-29T00:08:47;48.84;48.03;49.84;;
67322;Laerm;57666;51.436;5.978;2023-07-29T00:08:58;48.80;47.78;49.85;;
67322;Laerm;57666;51.436;5.978;2023-07-29T00:09:08;48.83;47.74;49.74;;
67322;Laerm;57666;51.436;5.978;2023-07-29T00:09:19;48.82;47.69;49.77;;
67322;Laerm;57666;51.436;5.978;2023-07-29T00:09:32;48.86;47.85;50.07;;
67322;Laerm;57666;51.436;5.978;2023-07-29T00:09:43;48.89;47.84;50.16;;
67322;Laerm;57666;51.436;5.978;2023-07-29T00:09:53;48.86;47.93;49.84;;
67322;Laerm;57666;51.436;5.978;2023-07-29T00:10:04;48.79;47.66;50.13;;
67322;Laerm;57666;51.436;5.978;2023-07-29T00:10:18;48.79;47.75;49.83;;
67322;Laerm;57666;51.436;5.978;2023-07-29T00:10:31;48.83;47.82;51.94;;
67322;Laerm;57666;51.436;5.978;2023-07-29T00:10:42;48.76;47.87;50.17;;
67322;Laerm;57666;51.436;5.978;2023-07-29T00:10:52;48.75;47.78;49.65;;
67322;Laerm;57666;51.436;5.978;2023-07-29T00:11:03;48.82;47.87;49.95;;
67322;Laerm;57666;51.436;5.978;2023-07-29T00:11:13;48.76;47.52;49.71;;
67322;Laerm;57666;51.436;5.978;2023-07-29T00:11:26;48.87;47.71;52.78;;
67322;Laerm;57666;51.436;5.978;2023-07-29T00:11:43;48.83;47.99;49.78;;
67322;Laerm;57666;51.436;5.978;2023-07-29T00:11:58;48.82;47.58;50.02;;
67322;Laerm;57666;51.436;5.978;2023-07-29T00:12:09;48.87;47.91;49.96;;
67322;Laerm;57666;51.436;5.978;2023-07-29T00:12:21;48.82;47.58;49.69;;
67322;Laerm;57666;51.436;5.978;2023-07-29T00:12:31;48.85;47.93;50.04;;
67322;Laerm;57666;51.436;5.978;2023-07-29T00:12:42;48.80;47.70;49.63;;
67322;Laerm;57666;51.436;5.978;2023-07-29T00:12:58;48.79;47.69;49.82;;
67322;Laerm;57666;51.436;5.978;2023-07-29T00:13:09;48.76;47.70;50.43;;
67322;Laerm;57666;51.436;5.978;2023-07-29T00:13:22;48.81;47.63;49.93;;
67322;Laerm;57666;51.436;5.978;2023-07-29T00:13:33;48.79;47.28;49.87;;
67322;Laerm;57666;51.436;5.978;2023-07-29T00:13:46;48.79;47.64;49.86;;
67322;Laerm;57666;51.436;5.978;2023-07-29T00:14:04;48.80;47.65;50.25;;
67322;Laerm;57666;51.436;5.978;2023-07-29T00:14:20;48.75;47.75;49.80;;
67322;Laerm;57666;51.436;5.978;2023-07-29T00:14:31;48.76;47.65;49.75;;
67322;Laerm;57666;51.436;5.978;2023-07-29T00:14:42;48.79;47.79;49.82;;
67322;Laerm;57666;51.436;5.978;2023-07-29T00:14:56;48.83;47.83;49.83;;
67322;Laerm;57666;51.436;5.978;2023-07-29T00:15:09;48.84;47.73;49.86;;
67322;Laerm;57666;51.436;5.978;2023-07-29T00:15:19;48.89;47.70;50.13;;
67322;Laerm;57666;51.436;5.978;2023-07-29T00:15:33;48.93;48.04;53.08;;
67322;Laerm;57666;51.436;5.978;2023-07-29T00:15:44;48.93;47.90;50.09;;
67322;Laerm;57666;51.436;5.978;2023-07-29T00:16:02;49.01;47.77;50.21;;
67322;Laerm;57666;51.436;5.978;2023-07-29T00:16:13;48.94;48.00;49.81;;
67322;Laerm;57666;51.436;5.978;2023-07-29T00:16:27;48.97;47.73;49.82;;
67322;Laerm;57666;51.436;5.978;2023-07-29T00:16:37;49.01;47.76;50.27;;
67322;Laerm;57666;51.436;5.978;2023-07-29T00:16:58;48.95;47.80;50.02;;
67322;Laerm;57666;51.436;5.978;2023-07-29T00:17:08;48.95;48.08;50.12;;
67322;Laerm;57666;51.436;5.978;2023-07-29T00:17:21;48.94;47.93;49.96;;
67322;Laerm;57666;51.436;5.978;2023-07-29T00:17:31;48.97;48.00;50.20;;
67322;Laerm;57666;51.436;5.978;2023-07-29T00:17:45;48.95;47.92;49.75;;
67322;Laerm;57666;51.436;5.978;2023-07-29T00:17:59;48.96;47.78;49.97;;
67322;Laerm;57666;51.436;5.978;2023-07-29T00:18:11;48.99;47.91;50.15;;
67322;Laerm;57666;51.436;5.978;2023-07-29T00:18:25;48.98;47.74;50.21;;
67322;Laerm;57666;51.436;5.978;2023-07-29T00:18:35;48.94;47.99;50.36;;
67322;Laerm;57666;51.436;5.978;2023-07-29T00:18:46;48.93;47.72;50.09;;
67322;Laerm;57666;51.436;5.978;2023-07-29T00:18:56;48.94;48.00;49.91;;
67322;Laerm;57666;51.436;5.978;2023-07-29T00:19:10;48.96;47.84;49.86;;
67322;Laerm;57666;51.436;5.978;2023-07-29T00:19:20;48.92;47.93;50.12;;
67322;Laerm;57666;51.436;5.978;2023-07-29T00:19:33;48.79;47.95;49.82;;
67322;Laerm;57666;51.436;5.978;2023-07-29T00:19:47;48.72;47.58;49.58;;
67322;Laerm;57666;51.436;5.978;2023-07-29T00:19:57;48.73;47.53;49.67;;
67322;Laerm;57666;51.436;5.978;2023-07-29T00:20:07;48.69;47.60;50.11;;
67322;Laerm;57666;51.436;5.978;2023-07-29T00:20:18;48.72;47.65;50.08;;
67322;Laerm;57666;51.436;5.978;2023-07-29T00:20:29;48.73;47.75;49.84;;
67322;Laerm;57666;51.436;5.978;2023-07-29T00:20:39;48.70;47.83;52.03;;
67322;Laerm;57666;51.436;5.978;2023-07-29T00:20:50;48.71;47.56;50.09;;
67322;Laerm;57666;51.436;5.978;2023-07-29T00:21:00;48.87;47.55;50.10;;
67322;Laerm;57666;51.436;5.978;2023-07-29T00:21:11;49.01;48.12;50.14;;
67322;Laerm;57666;51.436;5.978;2023-07-29T00:21:21;48.97;47.87;50.16;;
67322;Laerm;57666;51.436;5.978;2023-07-29T00:21:31;48.94;47.95;50.19;;
67322;Laerm;57666;51.436;5.978;2023-07-29T00:21:42;48.86;47.90;49.90;;
67322;Laerm;57666;51.436;5.978;2023-07-29T00:21:55;48.92;47.58;50.38;;
67322;Laerm;57666;51.436;5.978;2023-07-29T00:22:08;48.86;47.89;49.91;;
67322;Laerm;57666;51.436;5.978;2023-07-29T00:22:19;48.90;47.80;50.05;;
67322;Laerm;57666;51.436;5.978;2023-07-29T00:22:30;48.94;47.93;49.90;;
67322;Laerm;57666;51.436;5.978;2023-07-29T00:22:40;48.86;47.43;49.90;;
67322;Laerm;57666;51.436;5.978;2023-07-29T00:22:51;48.95;47.88;49.98;;
67322;Laerm;57666;51.436;5.978;2023-07-29T00:23:04;48.92;47.60;52.13;;
67322;Laerm;57666;51.436;5.978;2023-07-29T00:23:14;48.88;47.86;49.87;;
67322;Laerm;57666;51.436;5.978;2023-07-29T00:23:25;48.91;47.64;50.18;;
67322;Laerm;57666;51.436;5.978;2023-07-29T00:23:35;48.90;47.80;49.88;;
67322;Laerm;57666;51.436;5.978;2023-07-29T00:23:45;48.91;47.87;50.21;;
67322;Laerm;57666;51.436;5.978;2023-07-29T00:23:56;48.83;47.84;49.98;;
67322;Laerm;57666;51.436;5.978;2023-07-29T00:24:07;48.88;47.80;49.98;;
67322;Laerm;57666;51.436;5.978;2023-07-29T00:24:18;48.90;47.98;49.85;;
67322;Laerm;57666;51.436;5.978;2023-07-29T00:24:28;48.98;47.90;50.04;;
67322;Laerm;57666;51.436;5.978;2023-07-29T00:24:39;48.98;47.80;49.96;;
67322;Laerm;57666;51.436;5.978;2023-07-29T00:24:52;48.88;47.57;49.78;;
67322;Laerm;57666;51.436;5.978;2023-07-29T00:25:10;48.92;47.84;50.29;;
67322;Laerm;57666;51.436;5.978;2023-07-29T00:25:20;48.91;47.86;50.35;;
67322;Laerm;57666;51.436;5.978;2023-07-29T00:25:31;48.93;48.09;49.98;;
67322;Laerm;57666;51.436;5.978;2023-07-29T00:25:42;48.89;47.63;50.08;;
67322;Laerm;57666;51.436;5.978;2023-07-29T00:25:52;48.94;47.74;50.78;;
67322;Laerm;57666;51.436;5.978;2023-07-29T00:26:03;49.00;47.99;50.62;;
67322;Laerm;57666;51.436;5.978;2023-07-29T00:26:13;48.90;47.84;49.87;;
67322;Laerm;57666;51.436;5.978;2023-07-29T00:26:24;48.91;47.76;50.02;;
67322;Laerm;57666;51.436;5.978;2023-07-29T00:26:36;48.98;47.72;50.20;;
67322;Laerm;57666;51.436;5.978;2023-07-29T00:26:46;48.96;48.06;49.90;;
67322;Laerm;57666;51.436;5.978;2023-07-29T00:26:57;48.94;47.58;50.31;;
67322;Laerm;57666;51.436;5.978;2023-07-29T00:27:10;48.97;47.87;49.97;;
67322;Laerm;57666;51.436;5.978;2023-07-29T00:27:21;48.95;47.94;49.91;;
67322;Laerm;57666;51.436;5.978;2023-07-29T00:27:31;48.97;47.91;50.16;;
67322;Laerm;57666;51.436;5.978;2023-07-29T00:27:43;48.96;47.94;49.96;;
67322;Laerm;57666;51.436;5.978;2023-07-29T00:27:55;48.93;47.90;50.06;;
67322;Laerm;57666;51.436;5.978;2023-07-29T00:28:06;48.84;47.76;49.79;;
67322;Laerm;57666;51.436;5.978;2023-07-29T00:28:16;48.66;47.65;49.50;;
67322;Laerm;57666;51.436;5.978;2023-07-29T00:28:27;48.70;47.79;49.83;;
67322;Laerm;57666;51.436;5.978;2023-07-29T00:28:37;48.69;47.45;49.96;;
67322;Laerm;57666;51.436;5.978;2023-07-29T00:28:52;48.70;47.58;49.70;;
67322;Laerm;57666;51.436;5.978;2023-07-29T00:29:05;48.72;47.78;49.74;;
67322;Laerm;57666;51.436;5.978;2023-07-29T00:29:19;48.72;47.52;49.57;;
67322;Laerm;57666;51.436;5.978;2023-07-29T00:29:33;48.72;47.72;49.96;;
67322;Laerm;57666;51.436;5.978;2023-07-29T00:29:44;48.66;47.61;49.63;;
67322;Laerm;57666;51.436;5.978;2023-07-29T00:30:20;48.67;47.71;52.43;;
67322;Laerm;57666;51.436;5.978;2023-07-29T00:30:36;48.63;47.73;49.71;;
67322;Laerm;57666;51.436;5.978;2023-07-29T00:30:52;48.68;47.73;50.36;;
67322;Laerm;57666;51.436;5.978;2023-07-29T00:31:05;48.65;47.33;50.02;;
67322;Laerm;57666;51.436;5.978;2023-07-29T00:31:16;48.68;47.77;49.71;;
67322;Laerm;57666;51.436;5.978;2023-07-29T00:31:26;48.68;47.56;50.02;;
67322;Laerm;57666;51.436;5.978;2023-07-29T00:31:39;48.70;47.61;49.87;;
67322;Laerm;57666;51.436;5.978;2023-07-29T00:31:50;48.66;47.43;49.94;;
67322;Laerm;57666;51.436;5.978;2023-07-29T00:32:01;48.70;47.70;52.29;;
67322;Laerm;57666;51.436;5.978;2023-07-29T00:32:14;48.72;47.53;49.73;;
67322;Laerm;57666;51.436;5.978;2023-07-29T00:32:29;48.73;47.75;49.81;;
67322;Laerm;57666;51.436;5.978;2023-07-29T00:32:43;48.60;47.35;49.66;;
67322;Laerm;57666;51.436;5.978;2023-07-29T00:32:56;48.63;47.75;49.71;;
67322;Laerm;57666;51.436;5.978;2023-07-29T00:33:17;48.63;47.40;49.53;;
67322;Laerm;57666;51.436;5.978;2023-07-29T00:33:30;48.64;47.54;52.19;;
67322;Laerm;57666;51.436;5.978;2023-07-29T00:33:40;48.64;47.91;49.53;;
67322;Laerm;57666;51.436;5.978;2023-07-29T00:33:51;48.66;47.87;49.85;;
67322;Laerm;57666;51.436;5.978;2023-07-29T00:34:24;48.66;47.60;49.56;;
67322;Laerm;57666;51.436;5.978;2023-07-29T00:34:36;48.68;47.46;52.41;;
67322;Laerm;57666;51.436;5.978;2023-07-29T00:34:49;48.67;47.70;49.77;;
67322;Laerm;57666;51.436;5.978;2023-07-29T00:35:09;48.70;47.81;52.65;;
67322;Laerm;57666;51.436;5.978;2023-07-29T00:35:19;48.69;47.51;49.73;;
67322;Laerm;57666;51.436;5.978;2023-07-29T00:35:32;48.69;47.82;49.70;;
67322;Laerm;57666;51.436;5.978;2023-07-29T00:35:49;48.66;47.54;49.69;;
67322;Laerm;57666;51.436;5.978;2023-07-29T00:36:02;48.67;47.63;49.55;;
67322;Laerm;57666;51.436;5.978;2023-07-29T00:36:16;48.64;47.54;49.65;;
67322;Laerm;57666;51.436;5.978;2023-07-29T00:36:35;48.64;47.66;51.57;;
67322;Laerm;57666;51.436;5.978;2023-07-29T00:36:48;48.56;47.56;49.51;;
67322;Laerm;57666;51.436;5.978;2023-07-29T00:36:59;48.62;47.67;49.66;;
67322;Laerm;57666;51.436;5.978;2023-07-29T00:37:09;48.65;47.57;49.53;;
67322;Laerm;57666;51.436;5.978;2023-07-29T00:37:23;48.56;47.61;49.48;;
67322;Laerm;57666;51.436;5.978;2023-07-29T00:37:36;48.64;47.72;52.20;;
67322;Laerm;57666;51.436;5.978;2023-07-29T00:37:52;48.64;47.76;49.55;;
67322;Laerm;57666;51.436;5.978;2023-07-29T00:38:03;48.59;47.37;50.06;;
67322;Laerm;57666;51.436;5.978;2023-07-29T00:38:14;48.59;47.60;49.82;;
67322;Laerm;57666;51.436;5.978;2023-07-29T00:38:24;48.61;47.74;49.89;;
67322;Laerm;57666;51.436;5.978;2023-07-29T00:38:34;48.63;47.70;49.67;;
67322;Laerm;57666;51.436;5.978;2023-07-29T00:38:45;48.63;47.66;49.42;;
67322;Laerm;57666;51.436;5.978;2023-07-29T00:39:01;48.68;47.59;50.30;;
67322;Laerm;57666;51.436;5.978;2023-07-29T00:39:12;48.69;47.54;49.82;;
67322;Laerm;57666;51.436;5.978;2023-07-29T00:39:22;48.68;47.67;49.63;;
67322;Laerm;57666;51.436;5.978;2023-07-29T00:39:33;48.68;47.91;49.77;;
67322;Laerm;57666;51.436;5.978;2023-07-29T00:39:47;48.72;47.26;49.91;;
67322;Laerm;57666;51.436;5.978;2023-07-29T00:40:00;48.69;47.63;49.58;;
67322;Laerm;57666;51.436;5.978;2023-07-29T00:40:15;48.73;47.64;49.95;;
67322;Laerm;57666;51.436;5.978;2023-07-29T00:40:40;48.73;47.60;49.91;;
67322;Laerm;57666;51.436;5.978;2023-07-29T00:40:50;48.69;47.48;49.77;;
67322;Laerm;57666;51.436;5.978;2023-07-29T00:41:04;48.79;47.54;50.47;;
67322;Laerm;57666;51.436;5.978;2023-07-29T00:41:15;48.88;47.90;49.93;;
67322;Laerm;57666;51.436;5.978;2023-07-29T00:41:28;49.17;47.99;52.42;;
67322;Laerm;57666;51.436;5.978;2023-07-29T00:41:44;49.12;48.16;51.74;;
67322;Laerm;57666;51.436;5.978;2023-07-29T00:41:58;49.01;48.03;50.09;;
67322;Laerm;57666;51.436;5.978;2023-07-29T00:42:12;49.04;48.03;50.55;;
67322;Laerm;57666;51.436;5.978;2023-07-29T00:42:22;49.06;47.97;49.92;;
67322;Laerm;57666;51.436;5.978;2023-07-29T00:42:39;49.09;47.80;50.33;;
67322;Laerm;57666;51.436;5.978;2023-07-29T00:42:52;49.16;47.81;50.25;;
67322;Laerm;57666;51.436;5.978;2023-07-29T00:43:06;49.10;47.98;50.15;;
67322;Laerm;57666;51.436;5.978;2023-07-29T00:43:19;49.13;47.10;50.34;;
67322;Laerm;57666;51.436;5.978;2023-07-29T00:43:35;49.08;48.06;50.02;;
67322;Laerm;57666;51.436;5.978;2023-07-29T00:43:48;48.97;47.97;49.98;;
67322;Laerm;57666;51.436;5.978;2023-07-29T00:44:01;49.01;48.13;49.93;;
67322;Laerm;57666;51.436;5.978;2023-07-29T00:44:13;48.83;47.69;50.16;;
67322;Laerm;57666;51.436;5.978;2023-07-29T00:44:33;48.72;47.61;53.22;;
67322;Laerm;57666;51.436;5.978;2023-07-29T00:44:43;48.74;47.60;52.91;;
67322;Laerm;57666;51.436;5.978;2023-07-29T00:44:54;48.70;47.80;49.79;;
67322;Laerm;57666;51.436;5.978;2023-07-29T00:45:05;48.67;47.65;49.68;;
67322;Laerm;57666;51.436;5.978;2023-07-29T00:45:17;48.71;47.59;51.83;;
67322;Laerm;57666;51.436;5.978;2023-07-29T00:45:29;48.64;47.51;49.57;;
67322;Laerm;57666;51.436;5.978;2023-07-29T00:45:40;48.70;47.60;49.69;;
67322;Laerm;57666;51.436;5.978;2023-07-29T00:45:53;48.66;47.65;49.68;;
67322;Laerm;57666;51.436;5.978;2023-07-29T00:46:08;48.69;47.58;49.95;;
67322;Laerm;57666;51.436;5.978;2023-07-29T00:46:19;48.60;47.59;49.72;;
67322;Laerm;57666;51.436;5.978;2023-07-29T00:46:35;48.66;47.54;49.88;;
67322;Laerm;57666;51.436;5.978;2023-07-29T00:46:55;48.72;47.51;51.21;;
67322;Laerm;57666;51.436;5.978;2023-07-29T00:47:08;48.83;47.93;50.21;;
67322;Laerm;57666;51.436;5.978;2023-07-29T00:47:20;48.84;47.70;49.91;;
67322;Laerm;57666;51.436;5.978;2023-07-29T00:47:39;48.84;47.82;50.09;;
67322;Laerm;57666;51.436;5.978;2023-07-29T00:47:50;48.92;48.02;49.88;;
67322;Laerm;57666;51.436;5.978;2023-07-29T00:48:04;48.98;47.89;50.15;;
67322;Laerm;57666;51.436;5.978;2023-07-29T00:48:17;48.94;47.93;50.13;;
67322;Laerm;57666;51.436;5.978;2023-07-29T00:48:32;48.93;47.70;52.09;;
67322;Laerm;57666;51.436;5.978;2023-07-29T00:48:48;48.76;47.37;49.83;;
67322;Laerm;57666;51.436;5.978;2023-07-29T00:48:59;48.91;47.81;49.77;;
67322;Laerm;57666;51.436;5.978;2023-07-29T00:49:12;48.95;47.87;49.86;;
67322;Laerm;57666;51.436;5.978;2023-07-29T00:49:22;48.97;47.72;49.96;;
67322;Laerm;57666;51.436;5.978;2023-07-29T00:49:33;48.83;47.79;49.86;;
67322;Laerm;57666;51.436;5.978;2023-07-29T00:49:43;48.72;47.82;49.81;;
67322;Laerm;57666;51.436;5.978;2023-07-29T00:49:54;48.75;47.76;51.83;;
67322;Laerm;57666;51.436;5.978;2023-07-29T00:50:05;48.70;47.63;49.66;;
67322;Laerm;57666;51.436;5.978;2023-07-29T00:50:19;48.73;47.51;49.81;;
67322;Laerm;57666;51.436;5.978;2023-07-29T00:50:30;48.66;47.61;49.42;;
67322;Laerm;57666;51.436;5.978;2023-07-29T00:50:42;48.65;47.52;50.03;;
67322;Laerm;57666;51.436;5.978;2023-07-29T00:50:55;48.63;47.76;49.65;;
67322;Laerm;57666;51.436;5.978;2023-07-29T00:51:08;48.61;47.44;49.64;;
67322;Laerm;57666;51.436;5.978;2023-07-29T00:51:19;48.65;47.63;49.47;;
67322;Laerm;57666;51.436;5.978;2023-07-29T00:51:29;48.67;47.61;49.67;;
67322;Laerm;57666;51.436;5.978;2023-07-29T00:51:40;48.68;47.81;49.48;;
67322;Laerm;57666;51.436;5.978;2023-07-29T00:51:51;48.60;47.57;49.78;;
67322;Laerm;57666;51.436;5.978;2023-07-29T00:52:01;48.66;47.50;49.65;;
67322;Laerm;57666;51.436;5.978;2023-07-29T00:52:12;48.70;47.68;49.58;;
67322;Laerm;57666;51.436;5.978;2023-07-29T00:52:22;48.66;47.58;49.56;;
67322;Laerm;57666;51.436;5.978;2023-07-29T00:52:33;48.60;47.47;49.49;;
67322;Laerm;57666;51.436;5.978;2023-07-29T00:52:44;48.56;47.70;49.71;;
67322;Laerm;57666;51.436;5.978;2023-07-29T00:52:54;48.57;47.42;53.22;;
67322;Laerm;57666;51.436;5.978;2023-07-29T00:53:05;48.55;47.53;49.46;;
67322;Laerm;57666;51.436;5.978;2023-07-29T00:53:19;48.62;47.76;50.11;;
67322;Laerm;57666;51.436;5.978;2023-07-29T00:53:29;48.80;47.61;49.86;;
67322;Laerm;57666;51.436;5.978;2023-07-29T00:53:40;49.04;47.66;50.70;;
67322;Laerm;57666;51.436;5.978;2023-07-29T00:53:51;49.01;47.70;50.07;;
67322;Laerm;57666;51.436;5.978;2023-07-29T00:54:02;49.04;47.84;52.17;;
67322;Laerm;57666;51.436;5.978;2023-07-29T00:54:13;49.00;47.89;50.98;;
67322;Laerm;57666;51.436;5.978;2023-07-29T00:54:23;49.02;47.97;50.16;;
67322;Laerm;57666;51.436;5.978;2023-07-29T00:54:34;48.93;47.95;49.99;;
67322;Laerm;57666;51.436;5.978;2023-07-29T00:54:44;48.93;48.01;49.87;;
67322;Laerm;57666;51.436;5.978;2023-07-29T00:54:54;48.92;47.74;49.84;;
67322;Laerm;57666;51.436;5.978;2023-07-29T00:55:05;48.74;47.69;52.52;;
67322;Laerm;57666;51.436;5.978;2023-07-29T00:55:16;48.76;47.66;49.76;;
67322;Laerm;57666;51.436;5.978;2023-07-29T00:55:27;48.75;47.60;49.65;;
67322;Laerm;57666;51.436;5.978;2023-07-29T00:55:38;48.76;47.86;53.53;;
67322;Laerm;57666;51.436;5.978;2023-07-29T00:55:49;48.75;47.84;49.75;;
67322;Laerm;57666;51.436;5.978;2023-07-29T00:55:59;48.79;47.76;49.72;;
67322;Laerm;57666;51.436;5.978;2023-07-29T00:56:10;48.79;47.84;49.86;;
67322;Laerm;57666;51.436;5.978;2023-07-29T00:56:21;48.79;47.64;52.59;;
67322;Laerm;57666;51.436;5.978;2023-07-29T00:56:31;48.74;47.86;49.94;;
67322;Laerm;57666;51.436;5.978;2023-07-29T00:56:42;48.76;47.65;49.81;;
67322;Laerm;57666;51.436;5.978;2023-07-29T00:56:52;48.78;47.69;49.97;;
67322;Laerm;57666;51.436;5.978;2023-07-29T00:57:03;48.78;47.72;49.84;;
67322;Laerm;57666;51.436;5.978;2023-07-29T00:57:14;48.87;47.85;51.71;;
67322;Laerm;57666;51.436;5.978;2023-07-29T00:57:25;48.83;47.65;49.81;;
67322;Laerm;57666;51.436;5.978;2023-07-29T00:57:36;48.81;47.70;49.72;;
67322;Laerm;57666;51.436;5.978;2023-07-29T00:57:47;48.87;47.74;49.79;;
67322;Laerm;57666;51.436;5.978;2023-07-29T00:57:59;48.90;47.72;49.98;;
67322;Laerm;57666;51.436;5.978;2023-07-29T00:58:10;48.84;47.85;50.02;;
67322;Laerm;57666;51.436;5.978;2023-07-29T00:58:20;48.76;47.65;51.35;;
67322;Laerm;57666;51.436;5.978;2023-07-29T00:58:31;48.75;47.86;49.60;;
67322;Laerm;57666;51.436;5.978;2023-07-29T00:58:42;48.78;47.84;49.69;;
67322;Laerm;57666;51.436;5.978;2023-07-29T00:58:52;48.79;47.75;49.81;;
67322;Laerm;57666;51.436;5.978;2023-07-29T00:59:08;48.81;47.73;49.75;;
67322;Laerm;57666;51.436;5.978;2023-07-29T00:59:19;48.76;47.69;49.79;;
67322;Laerm;57666;51.436;5.978;2023-07-29T00:59:31;48.72;47.68;49.92;;
67322;Laerm;57666;51.436;5.978;2023-07-29T00:59:42;48.75;47.64;49.74;;
67322;Laerm;57666;51.436;5.978;2023-07-29T00:59:54;48.75;47.80;49.65;;
67322;Laerm;57666;51.436;5.978;2023-07-29T01:00:04;48.71;47.48;49.74;;
67322;Laerm;57666;51.436;5.978;2023-07-29T01:00:15;48.76;47.69;49.93;;
67322;Laerm;57666;51.436;5.978;2023-07-29T01:00:26;48.75;47.87;49.93;;
67322;Laerm;57666;51.436;5.978;2023-07-29T01:00:37;48.75;47.61;49.67;;
67322;Laerm;57666;51.436;5.978;2023-07-29T01:00:48;48.75;47.57;49.72;;
67322;Laerm;57666;51.436;5.978;2023-07-29T01:00:59;48.78;47.74;49.84;;
67322;Laerm;57666;51.436;5.978;2023-07-29T01:01:09;48.76;47.70;49.89;;
67322;Laerm;57666;51.436;5.978;2023-07-29T01:01:21;48.76;47.82;49.70;;
67322;Laerm;57666;51.436;5.978;2023-07-29T01:01:31;48.78;47.54;52.06;;
67322;Laerm;57666;51.436;5.978;2023-07-29T01:01:43;48.83;47.89;50.08;;
67322;Laerm;57666;51.436;5.978;2023-07-29T01:01:54;48.86;47.79;49.97;;
67322;Laerm;57666;51.436;5.978;2023-07-29T01:02:05;48.84;47.69;53.88;;
67322;Laerm;57666;51.436;5.978;2023-07-29T01:02:16;48.82;47.81;49.99;;
67322;Laerm;57666;51.436;5.978;2023-07-29T01:02:26;48.77;47.86;49.70;;
67322;Laerm;57666;51.436;5.978;2023-07-29T01:02:37;48.74;47.71;49.79;;
67322;Laerm;57666;51.436;5.978;2023-07-29T01:02:52;48.77;47.57;49.86;;
67322;Laerm;57666;51.436;5.978;2023-07-29T01:03:05;48.80;47.78;49.82;;
67322;Laerm;57666;51.436;5.978;2023-07-29T01:03:16;48.77;47.89;49.78;;
67322;Laerm;57666;51.436;5.978;2023-07-29T01:03:27;48.80;47.81;49.76;;
67322;Laerm;57666;51.436;5.978;2023-07-29T01:03:38;48.73;47.73;49.83;;
67322;Laerm;57666;51.436;5.978;2023-07-29T01:03:48;48.75;47.77;49.89;;
67322;Laerm;57666;51.436;5.978;2023-07-29T01:03:59;48.69;47.38;49.69;;
67322;Laerm;57666;51.436;5.978;2023-07-29T01:04:09;48.76;47.60;49.91;;
67322;Laerm;57666;51.436;5.978;2023-07-29T01:04:21;48.78;47.82;49.66;;
67322;Laerm;57666;51.436;5.978;2023-07-29T01:04:32;48.82;47.84;53.06;;
67322;Laerm;57666;51.436;5.978;2023-07-29T01:04:43;48.79;47.87;50.43;;
67322;Laerm;57666;51.436;5.978;2023-07-29T01:04:54;48.76;47.71;49.75;;
67322;Laerm;57666;51.436;5.978;2023-07-29T01:05:05;48.77;47.67;50.07;;
67322;Laerm;57666;51.436;5.978;2023-07-29T01:05:16;48.78;47.81;49.89;;
67322;Laerm;57666;51.436;5.978;2023-07-29T01:05:30;48.78;47.76;49.73;;
67322;Laerm;57666;51.436;5.978;2023-07-29T01:05:50;48.74;47.54;49.66;;
67322;Laerm;57666;51.436;5.978;2023-07-29T01:06:27;48.80;47.60;53.12;;
67322;Laerm;57666;51.436;5.978;2023-07-29T01:07:38;48.78;47.68;49.90;;
67322;Laerm;57666;51.436;5.978;2023-07-29T01:08:23;48.76;47.62;49.94;;
67322;Laerm;57666;51.436;5.978;2023-07-29T01:08:40;48.82;47.92;50.46;;
67322;Laerm;57666;51.436;5.978;2023-07-29T01:08:59;48.80;47.73;49.97;;
67322;Laerm;57666;51.436;5.978;2023-07-29T01:09:23;48.79;47.46;49.99;;
67322;Laerm;57666;51.436;5.978;2023-07-29T01:09:41;48.84;47.71;51.70;;
67322;Laerm;57666;51.436;5.978;2023-07-29T01:10:04;48.85;47.61;53.39;;
67322;Laerm;57666;51.436;5.978;2023-07-29T01:11:24;48.82;47.60;53.27;;
67322;Laerm;57666;51.436;5.978;2023-07-29T01:12:28;48.81;47.74;51.80;;
67322;Laerm;57666;51.436;5.978;2023-07-29T01:13:44;48.77;47.54;49.86;;
67322;Laerm;57666;51.436;5.978;2023-07-29T01:13:59;48.75;47.47;49.74;;
67322;Laerm;57666;51.436;5.978;2023-07-29T01:14:59;48.72;47.66;49.68;;